sensor_id;sensor_type;location;lat;lon;timestamp;temperature;humidity
67064;SHT30;58476;48.072;11.970;2023-12-29T00:02:22;21.52;41.52
67064;SHT30;58476;48.072;11.970;2023-12-29T00:04:47;21.52;41.43
67064;SHT30;58476;48.072;11.970;2023-12-29T00:07:13;21.47;41.63
67064;SHT30;58476;48.072;11.970;2023-12-29T00:09:38;21.49;41.59
67064;SHT30;58476;48.072;11.970;2023-12-29T00:12:04;21.48;41.64
67064;SHT30;58476;48.072;11.970;2023-12-29T00:14:29;21.48;41.70
67064;SHT30;58476;48.072;11.970;2023-12-29T00:16:55;21.47;41.61
67064;SHT30;58476;48.072;11.970;2023-12-29T00:19:20;21.44;41.74
67064;SHT30;58476;48.072;11.970;2023-12-29T00:21:45;21.45;41.51
67064;SHT30;58476;48.072;11.970;2023-12-29T00:24:10;21.42;41.75
67064;SHT30;58476;48.072;11.970;2023-12-29T00:26:36;21.42;41.65
67064;SHT30;58476;48.072;11.970;2023-12-29T00:29:01;21.42;41.72
67064;SHT30;58476;48.072;11.970;2023-12-29T00:31:27;21.38;41.64
67064;SHT30;58476;48.072;11.970;2023-12-29T00:33:52;21.37;41.72
67064;SHT30;58476;48.072;11.970;2023-12-29T00:36:19;21.37;41.62
67064;SHT30;58476;48.072;11.970;2023-12-29T00:38:45;21.38;41.85
67064;SHT30;58476;48.072;11.970;2023-12-29T00:41:10;21.41;41.68
67064;SHT30;58476;48.072;11.970;2023-12-29T00:43:36;21.42;41.79
67064;SHT30;58476;48.072;11.970;2023-12-29T00:46:05;21.44;41.75
67064;SHT30;58476;48.072;11.970;2023-12-29T00:48:33;21.45;41.64
67064;SHT30;58476;48.072;11.970;2023-12-29T00:51:01;21.47;41.63
67064;SHT30;58476;48.072;11.970;2023-12-29T00:53:26;21.48;41.52
67064;SHT30;58476;48.072;11.970;2023-12-29T00:55:51;21.48;41.56
67064;SHT30;58476;48.072;11.970;2023-12-29T00:58:17;21.49;41.55
67064;SHT30;58476;48.072;11.970;2023-12-29T01:00:42;21.49;41.49
67064;SHT30;58476;48.072;11.970;2023-12-29T01:03:07;21.52;41.43
67064;SHT30;58476;48.072;11.970;2023-12-29T01:05:33;21.52;41.43
67064;SHT30;58476;48.072;11.970;2023-12-29T01:07:58;21.51;41.47
67064;SHT30;58476;48.072;11.970;2023-12-29T01:10:23;21.52;41.51
67064;SHT30;58476;48.072;11.970;2023-12-29T01:12:49;21.52;41.31
67064;SHT30;58476;48.072;11.970;2023-12-29T01:15:14;21.52;41.39
67064;SHT30;58476;48.072;11.970;2023-12-29T01:17:40;21.52;41.41
67064;SHT30;58476;48.072;11.970;2023-12-29T01:20:05;21.54;41.35
67064;SHT30;58476;48.072;11.970;2023-12-29T01:22:31;21.55;41.40
67064;SHT30;58476;48.072;11.970;2023-12-29T01:24:59;21.49;41.42
67064;SHT30;58476;48.072;11.970;2023-12-29T01:27:24;21.52;41.41
67064;SHT30;58476;48.072;11.970;2023-12-29T01:29:50;21.51;41.40
67064;SHT30;58476;48.072;11.970;2023-12-29T01:32:15;21.49;41.33
67064;SHT30;58476;48.072;11.970;2023-12-29T01:34:40;21.48;41.32
67064;SHT30;58476;48.072;11.970;2023-12-29T01:37:06;21.48;41.47
67064;SHT30;58476;48.072;11.970;2023-12-29T01:39:33;21.44;41.39
67064;SHT30;58476;48.072;11.970;2023-12-29T01:41:58;21.42;41.42
67064;SHT30;58476;48.072;11.970;2023-12-29T01:44:24;21.38;41.37
67064;SHT30;58476;48.072;11.970;2023-12-29T01:46:51;21.37;41.40
67064;SHT30;58476;48.072;11.970;2023-12-29T01:49:17;21.35;41.65
67064;SHT30;58476;48.072;11.970;2023-12-29T01:51:42;21.34;41.44
67064;SHT30;58476;48.072;11.970;2023-12-29T01:54:09;21.32;41.63
67064;SHT30;58476;48.072;11.970;2023-12-29T01:56:35;21.34;41.59
67064;SHT30;58476;48.072;11.970;2023-12-29T01:59:01;21.30;41.64
67064;SHT30;58476;48.072;11.970;2023-12-29T02:01:27;21.25;41.62
67064;SHT30;58476;48.072;11.970;2023-12-29T02:03:53;21.27;41.58
67064;SHT30;58476;48.072;11.970;2023-12-29T02:06:19;21.25;41.61
67064;SHT30;58476;48.072;11.970;2023-12-29T02:08:45;21.24;41.58
67064;SHT30;58476;48.072;11.970;2023-12-29T02:11:11;21.21;41.67
67064;SHT30;58476;48.072;11.970;2023-12-29T02:13:36;21.23;41.92
67064;SHT30;58476;48.072;11.970;2023-12-29T02:16:11;21.18;41.80
67064;SHT30;58476;48.072;11.970;2023-12-29T02:18:38;21.17;41.77
67064;SHT30;58476;48.072;11.970;2023-12-29T02:21:04;21.18;41.81
67064;SHT30;58476;48.072;11.970;2023-12-29T02:23:30;21.18;41.76
67064;SHT30;58476;48.072;11.970;2023-12-29T02:26:02;21.15;41.65
67064;SHT30;58476;48.072;11.970;2023-12-29T02:28:31;21.12;41.66
67064;SHT30;58476;48.072;11.970;2023-12-29T02:31:10;21.14;41.67
67064;SHT30;58476;48.072;11.970;2023-12-29T02:33:40;21.11;41.76
67064;SHT30;58476;48.072;11.970;2023-12-29T02:36:06;21.11;41.73
67064;SHT30;58476;48.072;11.970;2023-12-29T02:38:32;21.11;41.67
67064;SHT30;58476;48.072;11.970;2023-12-29T02:40:59;21.08;41.66
67064;SHT30;58476;48.072;11.970;2023-12-29T02:43:25;21.10;41.74
67064;SHT30;58476;48.072;11.970;2023-12-29T02:45:50;21.07;41.67
67064;SHT30;58476;48.072;11.970;2023-12-29T02:48:15;21.06;41.73
67064;SHT30;58476;48.072;11.970;2023-12-29T02:50:41;21.06;41.54
67064;SHT30;58476;48.072;11.970;2023-12-29T02:53:06;21.07;41.91
67064;SHT30;58476;48.072;11.970;2023-12-29T02:55:32;21.06;42.02
67064;SHT30;58476;48.072;11.970;2023-12-29T02:57:57;21.08;41.98
67064;SHT30;58476;48.072;11.970;2023-12-29T03:00:23;21.10;41.93
67064;SHT30;58476;48.072;11.970;2023-12-29T03:02:48;21.12;41.82
67064;SHT30;58476;48.072;11.970;2023-12-29T03:05:14;21.15;41.78
67064;SHT30;58476;48.072;11.970;2023-12-29T03:07:39;21.17;41.70
67064;SHT30;58476;48.072;11.970;2023-12-29T03:10:05;21.14;41.65
67064;SHT30;58476;48.072;11.970;2023-12-29T03:12:30;21.20;41.63
67064;SHT30;58476;48.072;11.970;2023-12-29T03:14:56;21.18;41.64
67064;SHT30;58476;48.072;11.970;2023-12-29T03:17:21;21.17;41.63
67064;SHT30;58476;48.072;11.970;2023-12-29T03:19:47;21.20;41.61
67064;SHT30;58476;48.072;11.970;2023-12-29T03:22:13;21.18;41.54
67064;SHT30;58476;48.072;11.970;2023-12-29T03:24:40;21.21;41.51
67064;SHT30;58476;48.072;11.970;2023-12-29T03:27:06;21.20;41.43
67064;SHT30;58476;48.072;11.970;2023-12-29T03:29:31;21.20;41.50
67064;SHT30;58476;48.072;11.970;2023-12-29T03:31:57;21.21;41.42
67064;SHT30;58476;48.072;11.970;2023-12-29T03:34:22;21.23;41.43
67064;SHT30;58476;48.072;11.970;2023-12-29T03:37:31;21.23;41.37
67064;SHT30;58476;48.072;11.970;2023-12-29T03:39:56;21.21;41.40
67064;SHT30;58476;48.072;11.970;2023-12-29T03:42:21;21.21;41.35
67064;SHT30;58476;48.072;11.970;2023-12-29T03:44:47;21.20;41.42
67064;SHT30;58476;48.072;11.970;2023-12-29T03:47:12;21.20;41.38
67064;SHT30;58476;48.072;11.970;2023-12-29T03:49:37;21.18;41.28
67064;SHT30;58476;48.072;11.970;2023-12-29T03:52:03;21.14;41.34
67064;SHT30;58476;48.072;11.970;2023-12-29T03:54:28;21.12;41.26
67064;SHT30;58476;48.072;11.970;2023-12-29T03:56:53;21.12;41.34
67064;SHT30;58476;48.072;11.970;2023-12-29T03:59:19;21.10;41.36
67064;SHT30;58476;48.072;11.970;2023-12-29T04:01:44;21.07;41.43
67064;SHT30;58476;48.072;11.970;2023-12-29T04:04:09;21.07;41.31
67064;SHT30;58476;48.072;11.970;2023-12-29T04:06:35;21.03;41.39
67064;SHT30;58476;48.072;11.970;2023-12-29T04:09:00;21.04;41.28
67064;SHT30;58476;48.072;11.970;2023-12-29T04:11:25;21.03;41.31
67064;SHT30;58476;48.072;11.970;2023-12-29T04:13:51;21.03;41.33
67064;SHT30;58476;48.072;11.970;2023-12-29T04:16:16;21.01;41.47
67064;SHT30;58476;48.072;11.970;2023-12-29T04:18:41;21.00;41.25
67064;SHT30;58476;48.072;11.970;2023-12-29T04:21:07;20.98;41.13
67064;SHT30;58476;48.072;11.970;2023-12-29T04:23:32;20.97;41.31
67064;SHT30;58476;48.072;11.970;2023-12-29T04:25:57;20.97;41.27
67064;SHT30;58476;48.072;11.970;2023-12-29T04:28:23;20.93;41.24
67064;SHT30;58476;48.072;11.970;2023-12-29T04:30:48;20.93;41.31
67064;SHT30;58476;48.072;11.970;2023-12-29T04:33:13;20.91;41.31
67064;SHT30;58476;48.072;11.970;2023-12-29T04:35:39;20.88;41.24
67064;SHT30;58476;48.072;11.970;2023-12-29T04:38:04;20.90;41.18
67064;SHT30;58476;48.072;11.970;2023-12-29T04:40:29;20.86;41.26
67064;SHT30;58476;48.072;11.970;2023-12-29T04:42:55;20.87;41.22
67064;SHT30;58476;48.072;11.970;2023-12-29T04:45:20;20.87;41.18
67064;SHT30;58476;48.072;11.970;2023-12-29T04:47:45;20.86;41.27
67064;SHT30;58476;48.072;11.970;2023-12-29T04:50:11;20.86;41.17
67064;SHT30;58476;48.072;11.970;2023-12-29T04:52:36;20.83;41.28
67064;SHT30;58476;48.072;11.970;2023-12-29T04:55:01;20.83;41.23
67064;SHT30;58476;48.072;11.970;2023-12-29T04:57:27;20.83;41.24
67064;SHT30;58476;48.072;11.970;2023-12-29T04:59:52;20.81;41.32
67064;SHT30;58476;48.072;11.970;2023-12-29T05:02:17;20.80;41.20
67064;SHT30;58476;48.072;11.970;2023-12-29T05:04:42;20.77;41.34
67064;SHT30;58476;48.072;11.970;2023-12-29T05:07:09;20.77;41.36
67064;SHT30;58476;48.072;11.970;2023-12-29T05:09:35;20.77;41.34
67064;SHT30;58476;48.072;11.970;2023-12-29T05:12:00;20.79;41.29
67064;SHT30;58476;48.072;11.970;2023-12-29T05:14:25;20.80;41.33
67064;SHT30;58476;48.072;11.970;2023-12-29T05:16:51;20.81;41.40
67064;SHT30;58476;48.072;11.970;2023-12-29T05:19:16;20.84;41.23
67064;SHT30;58476;48.072;11.970;2023-12-29T05:21:41;20.87;41.30
67064;SHT30;58476;48.072;11.970;2023-12-29T05:24:07;20.87;41.34
67064;SHT30;58476;48.072;11.970;2023-12-29T05:26:32;20.91;41.39
67064;SHT30;58476;48.072;11.970;2023-12-29T05:28:57;20.91;41.68
67064;SHT30;58476;48.072;11.970;2023-12-29T05:31:23;20.93;41.60
67064;SHT30;58476;48.072;11.970;2023-12-29T05:33:48;21.04;41.57
67064;SHT30;58476;48.072;11.970;2023-12-29T05:36:13;21.01;41.54
67064;SHT30;58476;48.072;11.970;2023-12-29T05:38:39;21.01;41.65
67064;SHT30;58476;48.072;11.970;2023-12-29T05:41:04;21.01;41.70
67064;SHT30;58476;48.072;11.970;2023-12-29T05:43:31;21.00;41.58
67064;SHT30;58476;48.072;11.970;2023-12-29T05:45:57;20.96;41.58
67064;SHT30;58476;48.072;11.970;2023-12-29T05:48:23;20.94;41.28
67064;SHT30;58476;48.072;11.970;2023-12-29T05:50:48;21.00;40.63
67064;SHT30;58476;48.072;11.970;2023-12-29T05:53:14;21.06;41.43
67064;SHT30;58476;48.072;11.970;2023-12-29T05:55:39;21.10;41.50
67064;SHT30;58476;48.072;11.970;2023-12-29T05:58:04;21.14;41.36
67064;SHT30;58476;48.072;11.970;2023-12-29T06:00:29;21.15;41.33
67064;SHT30;58476;48.072;11.970;2023-12-29T06:02:55;21.14;41.51
67064;SHT30;58476;48.072;11.970;2023-12-29T06:05:20;21.10;41.60
67064;SHT30;58476;48.072;11.970;2023-12-29T06:07:45;21.03;41.42
67064;SHT30;58476;48.072;11.970;2023-12-29T06:10:11;21.01;41.76
67064;SHT30;58476;48.072;11.970;2023-12-29T06:12:36;20.93;41.20
67064;SHT30;58476;48.072;11.970;2023-12-29T06:15:02;20.88;41.05
67064;SHT30;58476;48.072;11.970;2023-12-29T06:17:27;20.84;41.31
67064;SHT30;58476;48.072;11.970;2023-12-29T06:19:53;20.83;41.42
67064;SHT30;58476;48.072;11.970;2023-12-29T06:22:18;20.80;41.24
67064;SHT30;58476;48.072;11.970;2023-12-29T06:24:43;20.79;41.31
67064;SHT30;58476;48.072;11.970;2023-12-29T06:27:09;20.77;41.14
67064;SHT30;58476;48.072;11.970;2023-12-29T06:29:35;20.77;40.92
67064;SHT30;58476;48.072;11.970;2023-12-29T06:32:01;20.75;40.95
67064;SHT30;58476;48.072;11.970;2023-12-29T06:34:26;20.70;41.00
67064;SHT30;58476;48.072;11.970;2023-12-29T06:36:51;20.72;41.00
67064;SHT30;58476;48.072;11.970;2023-12-29T06:39:17;20.70;40.82
67064;SHT30;58476;48.072;11.970;2023-12-29T06:41:42;20.70;40.95
67064;SHT30;58476;48.072;11.970;2023-12-29T06:44:07;20.66;41.10
67064;SHT30;58476;48.072;11.970;2023-12-29T06:46:33;20.66;41.01
67064;SHT30;58476;48.072;11.970;2023-12-29T06:48:58;20.63;41.34
67064;SHT30;58476;48.072;11.970;2023-12-29T06:51:23;20.62;41.03
67064;SHT30;58476;48.072;11.970;2023-12-29T06:53:49;20.62;41.11
67064;SHT30;58476;48.072;11.970;2023-12-29T06:56:18;20.62;41.15
67064;SHT30;58476;48.072;11.970;2023-12-29T06:58:43;20.60;41.15
67064;SHT30;58476;48.072;11.970;2023-12-29T07:01:09;20.60;40.32
67064;SHT30;58476;48.072;11.970;2023-12-29T07:03:34;20.50;39.82
67064;SHT30;58476;48.072;11.970;2023-12-29T07:06:02;20.52;40.09
67064;SHT30;58476;48.072;11.970;2023-12-29T07:08:28;20.50;40.70
67064;SHT30;58476;48.072;11.970;2023-12-29T07:10:54;20.53;40.57
67064;SHT30;58476;48.072;11.970;2023-12-29T07:13:19;20.57;40.67
67064;SHT30;58476;48.072;11.970;2023-12-29T07:15:46;20.62;40.64
67064;SHT30;58476;48.072;11.970;2023-12-29T07:18:12;20.62;40.81
67064;SHT30;58476;48.072;11.970;2023-12-29T07:20:37;20.63;40.84
67064;SHT30;58476;48.072;11.970;2023-12-29T07:23:02;20.63;40.83
67064;SHT30;58476;48.072;11.970;2023-12-29T07:25:28;20.69;40.80
67064;SHT30;58476;48.072;11.970;2023-12-29T07:27:53;20.69;40.93
67064;SHT30;58476;48.072;11.970;2023-12-29T07:30:18;20.72;41.12
67064;SHT30;58476;48.072;11.970;2023-12-29T07:32:44;20.80;40.88
67064;SHT30;58476;48.072;11.970;2023-12-29T07:35:09;20.81;41.28
67064;SHT30;58476;48.072;11.970;2023-12-29T07:37:34;20.83;41.45
67064;SHT30;58476;48.072;11.970;2023-12-29T07:40:00;20.87;41.39
67064;SHT30;58476;48.072;11.970;2023-12-29T07:42:25;20.90;41.55
67064;SHT30;58476;48.072;11.970;2023-12-29T07:44:50;20.94;41.73
67064;SHT30;58476;48.072;11.970;2023-12-29T07:47:16;20.94;41.75
67064;SHT30;58476;48.072;11.970;2023-12-29T07:49:41;20.97;41.68
67064;SHT30;58476;48.072;11.970;2023-12-29T07:52:07;20.98;41.76
67064;SHT30;58476;48.072;11.970;2023-12-29T07:54:32;20.97;41.76
67064;SHT30;58476;48.072;11.970;2023-12-29T07:56:57;21.01;41.90
67064;SHT30;58476;48.072;11.970;2023-12-29T07:59:23;21.04;41.99
67064;SHT30;58476;48.072;11.970;2023-12-29T08:01:48;21.07;41.80
67064;SHT30;58476;48.072;11.970;2023-12-29T08:04:13;21.07;41.75
67064;SHT30;58476;48.072;11.970;2023-12-29T08:06:39;21.06;41.95
67064;SHT30;58476;48.072;11.970;2023-12-29T08:09:04;21.04;42.17
67064;SHT30;58476;48.072;11.970;2023-12-29T08:11:29;21.03;42.09
67064;SHT30;58476;48.072;11.970;2023-12-29T08:13:55;20.98;42.09
67064;SHT30;58476;48.072;11.970;2023-12-29T08:16:20;20.97;42.14
67064;SHT30;58476;48.072;11.970;2023-12-29T08:18:46;20.96;42.08
67064;SHT30;58476;48.072;11.970;2023-12-29T08:21:21;20.94;42.10
67064;SHT30;58476;48.072;11.970;2023-12-29T08:23:47;20.94;41.92
67064;SHT30;58476;48.072;11.970;2023-12-29T08:26:13;20.94;41.87
67064;SHT30;58476;48.072;11.970;2023-12-29T08:28:38;20.93;42.08
67064;SHT30;58476;48.072;11.970;2023-12-29T08:31:04;20.91;41.81
67064;SHT30;58476;48.072;11.970;2023-12-29T08:33:29;20.91;41.97
67064;SHT30;58476;48.072;11.970;2023-12-29T08:35:54;20.88;41.74
67064;SHT30;58476;48.072;11.970;2023-12-29T08:38:20;20.90;41.84
67064;SHT30;58476;48.072;11.970;2023-12-29T08:40:45;20.91;41.95
67064;SHT30;58476;48.072;11.970;2023-12-29T08:43:10;20.91;42.48
67064;SHT30;58476;48.072;11.970;2023-12-29T08:45:35;20.93;42.70
67064;SHT30;58476;48.072;11.970;2023-12-29T08:48:01;20.94;42.77
67064;SHT30;58476;48.072;11.970;2023-12-29T08:50:26;20.97;42.81
67064;SHT30;58476;48.072;11.970;2023-12-29T08:52:51;20.98;43.04
67064;SHT30;58476;48.072;11.970;2023-12-29T08:55:17;21.00;43.23
67064;SHT30;58476;48.072;11.970;2023-12-29T08:57:42;20.97;43.11
67064;SHT30;58476;48.072;11.970;2023-12-29T09:00:08;20.97;43.47
67064;SHT30;58476;48.072;11.970;2023-12-29T09:02:33;20.97;43.64
67064;SHT30;58476;48.072;11.970;2023-12-29T09:04:58;20.96;43.53
67064;SHT30;58476;48.072;11.970;2023-12-29T09:07:24;21.00;43.61
67064;SHT30;58476;48.072;11.970;2023-12-29T09:09:49;21.03;43.59
67064;SHT30;58476;48.072;11.970;2023-12-29T09:12:14;21.04;43.46
67064;SHT30;58476;48.072;11.970;2023-12-29T09:14:40;21.10;43.31
67064;SHT30;58476;48.072;11.970;2023-12-29T09:17:05;21.10;43.25
67064;SHT30;58476;48.072;11.970;2023-12-29T09:19:30;21.12;42.98
67064;SHT30;58476;48.072;11.970;2023-12-29T09:21:56;21.11;43.15
67064;SHT30;58476;48.072;11.970;2023-12-29T09:24:21;21.15;43.18
67064;SHT30;58476;48.072;11.970;2023-12-29T09:26:46;21.17;43.05
67064;SHT30;58476;48.072;11.970;2023-12-29T09:29:12;21.17;42.91
67064;SHT30;58476;48.072;11.970;2023-12-29T09:31:37;21.21;43.04
67064;SHT30;58476;48.072;11.970;2023-12-29T09:34:02;21.20;42.97
67064;SHT30;58476;48.072;11.970;2023-12-29T09:36:28;21.21;43.23
67064;SHT30;58476;48.072;11.970;2023-12-29T09:38:53;21.25;43.00
67064;SHT30;58476;48.072;11.970;2023-12-29T09:41:20;21.25;43.06
67064;SHT30;58476;48.072;11.970;2023-12-29T09:43:50;21.27;42.96
67064;SHT30;58476;48.072;11.970;2023-12-29T09:46:21;21.28;42.97
67064;SHT30;58476;48.072;11.970;2023-12-29T09:48:47;21.30;42.95
67064;SHT30;58476;48.072;11.970;2023-12-29T09:51:13;21.30;42.89
67064;SHT30;58476;48.072;11.970;2023-12-29T09:53:39;21.31;43.04
67064;SHT30;58476;48.072;11.970;2023-12-29T09:56:07;21.27;43.13
67064;SHT30;58476;48.072;11.970;2023-12-29T09:58:33;21.27;42.91
67064;SHT30;58476;48.072;11.970;2023-12-29T10:01:01;21.21;43.07
67064;SHT30;58476;48.072;11.970;2023-12-29T10:03:26;21.15;43.07
67064;SHT30;58476;48.072;11.970;2023-12-29T10:05:54;21.14;43.05
67064;SHT30;58476;48.072;11.970;2023-12-29T10:08:22;21.10;42.86
67064;SHT30;58476;48.072;11.970;2023-12-29T10:10:48;21.07;42.47
67064;SHT30;58476;48.072;11.970;2023-12-29T10:13:13;21.08;42.82
67064;SHT30;58476;48.072;11.970;2023-12-29T10:15:42;21.04;42.97
67064;SHT30;58476;48.072;11.970;2023-12-29T10:24:05;21.06;43.58
67064;SHT30;58476;48.072;11.970;2023-12-29T10:26:34;21.04;43.36
67064;SHT30;58476;48.072;11.970;2023-12-29T10:29:00;21.01;43.69
67064;SHT30;58476;48.072;11.970;2023-12-29T10:31:25;21.00;43.82
67064;SHT30;58476;48.072;11.970;2023-12-29T10:33:51;21.03;44.19
67064;SHT30;58476;48.072;11.970;2023-12-29T10:36:17;21.03;44.77
67064;SHT30;58476;48.072;11.970;2023-12-29T10:38:42;21.03;44.77
67064;SHT30;58476;48.072;11.970;2023-12-29T10:41:17;21.03;44.65
67064;SHT30;58476;48.072;11.970;2023-12-29T10:43:44;21.06;45.71
67064;SHT30;58476;48.072;11.970;2023-12-29T10:46:11;21.08;47.89
67064;SHT30;58476;48.072;11.970;2023-12-29T10:48:39;21.10;48.04
67064;SHT30;58476;48.072;11.970;2023-12-29T10:51:05;21.10;46.91
67064;SHT30;58476;48.072;11.970;2023-12-29T10:53:35;21.15;47.95
67064;SHT30;58476;48.072;11.970;2023-12-29T10:56:01;21.18;50.15
67064;SHT30;58476;48.072;11.970;2023-12-29T10:58:27;21.25;49.27
67064;SHT30;58476;48.072;11.970;2023-12-29T11:00:53;21.24;48.62
67064;SHT30;58476;48.072;11.970;2023-12-29T11:03:19;21.27;47.90
67064;SHT30;58476;48.072;11.970;2023-12-29T11:05:44;21.23;47.95
67064;SHT30;58476;48.072;11.970;2023-12-29T11:08:17;21.24;47.76
67064;SHT30;58476;48.072;11.970;2023-12-29T11:10:43;21.21;47.59
67064;SHT30;58476;48.072;11.970;2023-12-29T11:13:10;21.21;47.81
67064;SHT30;58476;48.072;11.970;2023-12-29T11:15:37;21.23;47.66
67064;SHT30;58476;48.072;11.970;2023-12-29T11:18:04;21.23;47.31
67064;SHT30;58476;48.072;11.970;2023-12-29T11:20:30;21.20;46.52
67064;SHT30;58476;48.072;11.970;2023-12-29T11:22:56;21.17;46.49
67064;SHT30;58476;48.072;11.970;2023-12-29T11:25:21;21.18;46.18
67064;SHT30;58476;48.072;11.970;2023-12-29T11:27:48;21.21;45.85
67064;SHT30;58476;48.072;11.970;2023-12-29T11:30:14;21.15;45.81
67064;SHT30;58476;48.072;11.970;2023-12-29T11:32:59;21.15;45.83
67064;SHT30;58476;48.072;11.970;2023-12-29T11:35:34;21.14;45.81
67064;SHT30;58476;48.072;11.970;2023-12-29T11:38:24;21.14;45.93
67064;SHT30;58476;48.072;11.970;2023-12-29T11:41:33;21.12;46.12
67064;SHT30;58476;48.072;11.970;2023-12-29T11:44:01;21.14;45.68
67064;SHT30;58476;48.072;11.970;2023-12-29T11:46:33;21.15;46.18
67064;SHT30;58476;48.072;11.970;2023-12-29T11:48:59;21.14;45.76
67064;SHT30;58476;48.072;11.970;2023-12-29T11:51:41;21.17;45.81
67064;SHT30;58476;48.072;11.970;2023-12-29T11:54:07;21.18;45.54
67064;SHT30;58476;48.072;11.970;2023-12-29T11:56:39;21.18;45.61
67064;SHT30;58476;48.072;11.970;2023-12-29T11:59:22;21.14;45.62
67064;SHT30;58476;48.072;11.970;2023-12-29T12:01:50;21.15;45.66
67064;SHT30;58476;48.072;11.970;2023-12-29T12:04:35;21.15;46.01
67064;SHT30;58476;48.072;11.970;2023-12-29T12:07:01;21.15;46.46
67064;SHT30;58476;48.072;11.970;2023-12-29T12:09:26;21.11;46.56
67064;SHT30;58476;48.072;11.970;2023-12-29T12:11:51;21.14;46.67
67064;SHT30;58476;48.072;11.970;2023-12-29T12:14:48;21.10;46.74
67064;SHT30;58476;48.072;11.970;2023-12-29T12:17:27;21.10;46.92
67064;SHT30;58476;48.072;11.970;2023-12-29T12:19:56;21.11;46.95
67064;SHT30;58476;48.072;11.970;2023-12-29T12:22:24;21.08;47.05
67064;SHT30;58476;48.072;11.970;2023-12-29T12:24:55;21.08;47.01
67064;SHT30;58476;48.072;11.970;2023-12-29T12:27:21;21.11;47.01
67064;SHT30;58476;48.072;11.970;2023-12-29T12:29:49;21.11;47.10
67064;SHT30;58476;48.072;11.970;2023-12-29T12:32:16;21.11;46.72
67064;SHT30;58476;48.072;11.970;2023-12-29T12:34:41;21.10;46.68
67064;SHT30;58476;48.072;11.970;2023-12-29T12:37:06;21.10;46.63
67064;SHT30;58476;48.072;11.970;2023-12-29T12:39:41;21.11;46.74
67064;SHT30;58476;48.072;11.970;2023-12-29T12:42:06;21.08;46.64
67064;SHT30;58476;48.072;11.970;2023-12-29T12:44:32;21.08;46.52
67064;SHT30;58476;48.072;11.970;2023-12-29T12:46:59;21.10;46.70
67064;SHT30;58476;48.072;11.970;2023-12-29T12:49:25;21.08;46.61
67064;SHT30;58476;48.072;11.970;2023-12-29T12:51:50;21.07;46.56
67064;SHT30;58476;48.072;11.970;2023-12-29T12:54:19;21.10;46.52
67064;SHT30;58476;48.072;11.970;2023-12-29T12:56:44;21.07;46.55
67064;SHT30;58476;48.072;11.970;2023-12-29T12:59:11;21.08;46.60
67064;SHT30;58476;48.072;11.970;2023-12-29T13:01:37;21.07;46.60
67064;SHT30;58476;48.072;11.970;2023-12-29T13:04:04;21.07;46.54
67064;SHT30;58476;48.072;11.970;2023-12-29T13:06:34;21.07;46.58
67064;SHT30;58476;48.072;11.970;2023-12-29T13:09:00;21.10;46.51
67064;SHT30;58476;48.072;11.970;2023-12-29T13:11:26;21.07;46.76
67064;SHT30;58476;48.072;11.970;2023-12-29T13:13:51;21.15;46.60
67064;SHT30;58476;48.072;11.970;2023-12-29T13:16:17;21.15;46.48
67064;SHT30;58476;48.072;11.970;2023-12-29T13:18:42;21.18;46.57
67064;SHT30;58476;48.072;11.970;2023-12-29T13:21:08;21.24;46.39
67064;SHT30;58476;48.072;11.970;2023-12-29T13:23:33;21.23;46.46
67064;SHT30;58476;48.072;11.970;2023-12-29T13:26:01;21.27;46.28
67064;SHT30;58476;48.072;11.970;2023-12-29T13:28:27;21.28;46.23
67064;SHT30;58476;48.072;11.970;2023-12-29T13:30:52;21.30;46.24
67064;SHT30;58476;48.072;11.970;2023-12-29T13:33:35;21.34;46.38
67064;SHT30;58476;48.072;11.970;2023-12-29T13:36:11;21.35;46.38
67064;SHT30;58476;48.072;11.970;2023-12-29T13:38:43;21.38;46.51
67064;SHT30;58476;48.072;11.970;2023-12-29T13:41:11;21.38;46.56
67064;SHT30;58476;48.072;11.970;2023-12-29T13:43:39;21.41;46.56
67064;SHT30;58476;48.072;11.970;2023-12-29T13:46:06;21.44;46.55
67064;SHT30;58476;48.072;11.970;2023-12-29T13:48:32;21.45;46.70
67064;SHT30;58476;48.072;11.970;2023-12-29T13:50:58;21.48;46.61
67064;SHT30;58476;48.072;11.970;2023-12-29T13:54:20;21.51;46.70
67064;SHT30;58476;48.072;11.970;2023-12-29T13:56:52;21.52;46.77
67064;SHT30;58476;48.072;11.970;2023-12-29T13:59:18;21.54;46.56
67064;SHT30;58476;48.072;11.970;2023-12-29T14:01:43;21.49;46.69
67064;SHT30;58476;48.072;11.970;2023-12-29T14:04:11;21.49;46.72
67064;SHT30;58476;48.072;11.970;2023-12-29T14:07:00;21.47;46.56
67064;SHT30;58476;48.072;11.970;2023-12-29T14:09:26;21.47;46.63
67064;SHT30;58476;48.072;11.970;2023-12-29T14:11:51;21.48;46.44
67064;SHT30;58476;48.072;11.970;2023-12-29T14:14:24;21.47;46.44
67064;SHT30;58476;48.072;11.970;2023-12-29T14:16:49;21.45;46.48
67064;SHT30;58476;48.072;11.970;2023-12-29T14:19:15;21.47;46.30
67064;SHT30;58476;48.072;11.970;2023-12-29T14:21:40;21.47;46.34
67064;SHT30;58476;48.072;11.970;2023-12-29T14:24:14;21.45;46.32
67064;SHT30;58476;48.072;11.970;2023-12-29T14:27:01;21.44;46.34
67064;SHT30;58476;48.072;11.970;2023-12-29T14:29:26;21.45;46.38
67064;SHT30;58476;48.072;11.970;2023-12-29T14:31:51;21.44;46.42
67064;SHT30;58476;48.072;11.970;2023-12-29T14:34:17;21.51;46.13
67064;SHT30;58476;48.072;11.970;2023-12-29T14:36:43;21.47;46.30
67064;SHT30;58476;48.072;11.970;2023-12-29T14:39:09;21.48;46.21
67064;SHT30;58476;48.072;11.970;2023-12-29T14:41:35;21.45;46.20
67064;SHT30;58476;48.072;11.970;2023-12-29T14:44:00;21.47;46.28
67064;SHT30;58476;48.072;11.970;2023-12-29T14:46:25;21.45;46.17
67064;SHT30;58476;48.072;11.970;2023-12-29T14:48:52;21.45;46.17
67064;SHT30;58476;48.072;11.970;2023-12-29T14:51:18;21.47;46.10
67064;SHT30;58476;48.072;11.970;2023-12-29T14:53:45;21.48;46.21
67064;SHT30;58476;48.072;11.970;2023-12-29T14:56:10;21.47;46.32
67064;SHT30;58476;48.072;11.970;2023-12-29T14:58:36;21.49;46.40
67064;SHT30;58476;48.072;11.970;2023-12-29T15:01:02;21.51;46.56
67064;SHT30;58476;48.072;11.970;2023-12-29T15:03:27;21.49;46.59
67064;SHT30;58476;48.072;11.970;2023-12-29T15:05:52;21.48;46.61
67064;SHT30;58476;48.072;11.970;2023-12-29T15:08:18;21.52;46.81
67064;SHT30;58476;48.072;11.970;2023-12-29T15:10:44;21.54;46.75
67064;SHT30;58476;48.072;11.970;2023-12-29T15:13:09;21.51;46.84
67064;SHT30;58476;48.072;11.970;2023-12-29T15:15:35;21.55;46.75
67064;SHT30;58476;48.072;11.970;2023-12-29T15:18:00;21.58;46.40
67064;SHT30;58476;48.072;11.970;2023-12-29T15:20:25;21.59;46.30